sensor_id;sensor_type;location;lat;lon;timestamp;temperature;humidity
7822;DHT22;3956;50.558;9.678;2023-04-24T00:00:41;10.90;1.00
7822;DHT22;3956;50.558;9.678;2023-04-24T00:03:11;10.90;1.00
7822;DHT22;3956;50.558;9.678;2023-04-24T00:05:41;10.90;1.00
7822;DHT22;3956;50.558;9.678;2023-04-24T00:08:11;10.90;1.00
7822;DHT22;3956;50.558;9.678;2023-04-24T00:10:39;11.00;1.00
7822;DHT22;3956;50.558;9.678;2023-04-24T00:13:16;11.00;1.00
7822;DHT22;3956;50.558;9.678;2023-04-24T00:15:45;10.90;1.00
7822;DHT22;3956;50.558;9.678;2023-04-24T00:18:16;11.00;1.00
7822;DHT22;3956;50.558;9.678;2023-04-24T00:20:44;10.90;1.00
7822;DHT22;3956;50.558;9.678;2023-04-24T00:23:15;10.70;1.00
7822;DHT22;3956;50.558;9.678;2023-04-24T00:25:45;10.80;1.00
7822;DHT22;3956;50.558;9.678;2023-04-24T00:28:14;10.80;1.00
7822;DHT22;3956;50.558;9.678;2023-04-24T00:30:43;10.70;1.00
7822;DHT22;3956;50.558;9.678;2023-04-24T00:33:12;10.60;1.00
7822;DHT22;3956;50.558;9.678;2023-04-24T00:35:40;10.70;1.00
7822;DHT22;3956;50.558;9.678;2023-04-24T00:38:08;10.70;1.00
7822;DHT22;3956;50.558;9.678;2023-04-24T00:40:41;10.70;1.00
7822;DHT22;3956;50.558;9.678;2023-04-24T00:43:13;10.80;1.00
7822;DHT22;3956;50.558;9.678;2023-04-24T00:45:44;10.70;1.00
7822;DHT22;3956;50.558;9.678;2023-04-24T00:48:17;10.70;1.00
7822;DHT22;3956;50.558;9.678;2023-04-24T00:50:47;10.70;1.00
7822;DHT22;3956;50.558;9.678;2023-04-24T00:53:15;10.60;1.00
7822;DHT22;3956;50.558;9.678;2023-04-24T00:55:45;10.60;1.00
7822;DHT22;3956;50.558;9.678;2023-04-24T00:58:18;10.60;1.00
7822;DHT22;3956;50.558;9.678;2023-04-24T01:00:48;10.60;1.00
7822;DHT22;3956;50.558;9.678;2023-04-24T01:03:18;10.70;1.00
7822;DHT22;3956;50.558;9.678;2023-04-24T01:05:48;10.70;1.00
7822;DHT22;3956;50.558;9.678;2023-04-24T01:08:18;10.80;1.00
7822;DHT22;3956;50.558;9.678;2023-04-24T01:10:49;10.70;1.00
7822;DHT22;3956;50.558;9.678;2023-04-24T01:13:20;10.70;1.00
7822;DHT22;3956;50.558;9.678;2023-04-24T01:15:49;10.80;1.00
7822;DHT22;3956;50.558;9.678;2023-04-24T01:18:18;10.70;1.00
7822;DHT22;3956;50.558;9.678;2023-04-24T01:20:50;10.80;1.00
7822;DHT22;3956;50.558;9.678;2023-04-24T01:23:20;10.80;1.00
7822;DHT22;3956;50.558;9.678;2023-04-24T01:25:52;10.80;1.00
7822;DHT22;3956;50.558;9.678;2023-04-24T01:28:20;10.80;1.00
7822;DHT22;3956;50.558;9.678;2023-04-24T01:30:50;10.80;1.00
7822;DHT22;3956;50.558;9.678;2023-04-24T01:33:21;10.80;1.00
7822;DHT22;3956;50.558;9.678;2023-04-24T01:35:52;10.80;1.00
7822;DHT22;3956;50.558;9.678;2023-04-24T01:38:23;10.80;1.00
7822;DHT22;3956;50.558;9.678;2023-04-24T01:40:55;10.80;1.00
7822;DHT22;3956;50.558;9.678;2023-04-24T01:43:25;10.80;1.00
7822;DHT22;3956;50.558;9.678;2023-04-24T01:45:53;10.80;1.00
7822;DHT22;3956;50.558;9.678;2023-04-24T01:48:22;10.80;1.00
7822;DHT22;3956;50.558;9.678;2023-04-24T01:50:52;10.90;1.00
7822;DHT22;3956;50.558;9.678;2023-04-24T01:53:23;10.90;1.00
7822;DHT22;3956;50.558;9.678;2023-04-24T01:55:52;10.90;1.00
7822;DHT22;3956;50.558;9.678;2023-04-24T01:58:20;10.90;1.00
7822;DHT22;3956;50.558;9.678;2023-04-24T02:00:49;10.90;1.00
7822;DHT22;3956;50.558;9.678;2023-04-24T02:03:19;10.90;1.00
7822;DHT22;3956;50.558;9.678;2023-04-24T02:05:47;10.90;1.00
7822;DHT22;3956;50.558;9.678;2023-04-24T02:08:17;10.70;1.00
7822;DHT22;3956;50.558;9.678;2023-04-24T02:10:50;10.80;1.00
7822;DHT22;3956;50.558;9.678;2023-04-24T02:13:18;10.80;1.00
7822;DHT22;3956;50.558;9.678;2023-04-24T02:15:52;10.70;1.00
7822;DHT22;3956;50.558;9.678;2023-04-24T02:18:20;10.70;1.00
7822;DHT22;3956;50.558;9.678;2023-04-24T02:20:49;10.70;1.00
7822;DHT22;3956;50.558;9.678;2023-04-24T02:23:21;10.60;1.00
7822;DHT22;3956;50.558;9.678;2023-04-24T02:25:52;10.60;1.00
7822;DHT22;3956;50.558;9.678;2023-04-24T02:28:20;10.20;1.00
7822;DHT22;3956;50.558;9.678;2023-04-24T02:30:48;10.30;1.00
7822;DHT22;3956;50.558;9.678;2023-04-24T02:33:19;10.30;1.00
7822;DHT22;3956;50.558;9.678;2023-04-24T02:35:49;10.40;1.00
7822;DHT22;3956;50.558;9.678;2023-04-24T02:38:18;10.30;1.00
7822;DHT22;3956;50.558;9.678;2023-04-24T02:40:48;10.40;1.00
7822;DHT22;3956;50.558;9.678;2023-04-24T02:43:27;10.40;1.00
7822;DHT22;3956;50.558;9.678;2023-04-24T02:45:59;10.40;1.00
7822;DHT22;3956;50.558;9.678;2023-04-24T02:48:29;10.50;1.00
7822;DHT22;3956;50.558;9.678;2023-04-24T02:50:59;10.50;1.00
7822;DHT22;3956;50.558;9.678;2023-04-24T02:53:30;10.50;1.00
7822;DHT22;3956;50.558;9.678;2023-04-24T02:55:59;10.40;1.00
7822;DHT22;3956;50.558;9.678;2023-04-24T02:58:30;10.50;1.00
7822;DHT22;3956;50.558;9.678;2023-04-24T03:01:00;10.40;1.00
7822;DHT22;3956;50.558;9.678;2023-04-24T03:03:28;10.40;1.00
7822;DHT22;3956;50.558;9.678;2023-04-24T03:05:57;10.40;1.00
7822;DHT22;3956;50.558;9.678;2023-04-24T03:08:27;10.30;1.00
7822;DHT22;3956;50.558;9.678;2023-04-24T03:11:00;10.30;1.00
7822;DHT22;3956;50.558;9.678;2023-04-24T03:13:49;10.20;1.00
7822;DHT22;3956;50.558;9.678;2023-04-24T03:16:35;10.20;1.00
7822;DHT22;3956;50.558;9.678;2023-04-24T03:19:04;10.10;1.00
7822;DHT22;3956;50.558;9.678;2023-04-24T03:21:36;10.00;1.00
7822;DHT22;3956;50.558;9.678;2023-04-24T03:24:14;10.00;1.00
7822;DHT22;3956;50.558;9.678;2023-04-24T03:26:45;10.00;1.00
7822;DHT22;3956;50.558;9.678;2023-04-24T03:29:15;10.00;1.00
7822;DHT22;3956;50.558;9.678;2023-04-24T03:31:44;10.00;1.00
7822;DHT22;3956;50.558;9.678;2023-04-24T03:34:15;10.00;1.00
7822;DHT22;3956;50.558;9.678;2023-04-24T03:36:47;10.00;1.00
7822;DHT22;3956;50.558;9.678;2023-04-24T03:39:29;10.00;99.90
7822;DHT22;3956;50.558;9.678;2023-04-24T03:42:01;10.00;1.00
7822;DHT22;3956;50.558;9.678;2023-04-24T03:44:38;9.90;1.00
7822;DHT22;3956;50.558;9.678;2023-04-24T03:47:09;10.00;1.00
7822;DHT22;3956;50.558;9.678;2023-04-24T03:49:38;10.00;1.00
7822;DHT22;3956;50.558;9.678;2023-04-24T03:52:08;10.00;1.00
7822;DHT22;3956;50.558;9.678;2023-04-24T03:54:38;10.20;1.00
7822;DHT22;3956;50.558;9.678;2023-04-24T03:57:39;10.10;1.00
7822;DHT22;3956;50.558;9.678;2023-04-24T04:00:23;10.10;1.00
7822;DHT22;3956;50.558;9.678;2023-04-24T04:02:54;10.20;1.00
7822;DHT22;3956;50.558;9.678;2023-04-24T04:05:26;10.10;1.00
7822;DHT22;3956;50.558;9.678;2023-04-24T04:07:57;10.20;1.00
7822;DHT22;3956;50.558;9.678;2023-04-24T04:10:27;10.20;1.00
7822;DHT22;3956;50.558;9.678;2023-04-24T04:12:56;10.10;1.00
7822;DHT22;3956;50.558;9.678;2023-04-24T04:15:29;10.20;1.00
7822;DHT22;3956;50.558;9.678;2023-04-24T04:17:58;10.30;1.00
7822;DHT22;3956;50.558;9.678;2023-04-24T04:20:38;10.30;1.00
7822;DHT22;3956;50.558;9.678;2023-04-24T04:23:28;10.30;1.00
7822;DHT22;3956;50.558;9.678;2023-04-24T04:26:28;10.30;1.00
7822;DHT22;3956;50.558;9.678;2023-04-24T04:28:59;10.30;1.00
7822;DHT22;3956;50.558;9.678;2023-04-24T04:31:31;10.30;1.00
7822;DHT22;3956;50.558;9.678;2023-04-24T04:33:59;10.40;1.00
7822;DHT22;3956;50.558;9.678;2023-04-24T04:36:28;10.40;1.00
7822;DHT22;3956;50.558;9.678;2023-04-24T04:38:57;10.40;1.00
7822;DHT22;3956;50.558;9.678;2023-04-24T04:41:26;10.30;1.00
7822;DHT22;3956;50.558;9.678;2023-04-24T04:44:03;10.30;1.00
7822;DHT22;3956;50.558;9.678;2023-04-24T04:46:33;10.40;1.00
7822;DHT22;3956;50.558;9.678;2023-04-24T04:49:01;10.40;1.00
7822;DHT22;3956;50.558;9.678;2023-04-24T04:51:29;10.40;1.00
7822;DHT22;3956;50.558;9.678;2023-04-24T04:53:57;10.40;1.00
7822;DHT22;3956;50.558;9.678;2023-04-24T04:56:26;10.30;1.00
7822;DHT22;3956;50.558;9.678;2023-04-24T04:58:57;10.30;1.00
7822;DHT22;3956;50.558;9.678;2023-04-24T05:01:37;10.30;1.00
7822;DHT22;3956;50.558;9.678;2023-04-24T05:04:19;10.40;1.00
7822;DHT22;3956;50.558;9.678;2023-04-24T05:06:53;10.40;1.00
7822;DHT22;3956;50.558;9.678;2023-04-24T05:09:21;10.40;1.00
7822;DHT22;3956;50.558;9.678;2023-04-24T05:11:58;10.30;1.00
7822;DHT22;3956;50.558;9.678;2023-04-24T05:14:26;10.30;1.00
7822;DHT22;3956;50.558;9.678;2023-04-24T05:17:10;10.30;1.00
7822;DHT22;3956;50.558;9.678;2023-04-24T05:19:51;10.30;1.00
7822;DHT22;3956;50.558;9.678;2023-04-24T05:22:34;10.20;1.00
7822;DHT22;3956;50.558;9.678;2023-04-24T05:25:19;10.20;1.00
7822;DHT22;3956;50.558;9.678;2023-04-24T05:27:47;10.10;1.00
7822;DHT22;3956;50.558;9.678;2023-04-24T05:30:16;10.10;1.00
7822;DHT22;3956;50.558;9.678;2023-04-24T05:33:06;10.10;1.00
7822;DHT22;3956;50.558;9.678;2023-04-24T05:35:54;10.10;1.00
7822;DHT22;3956;50.558;9.678;2023-04-24T05:38:32;10.00;1.00
7822;DHT22;3956;50.558;9.678;2023-04-24T05:41:16;10.10;1.00
7822;DHT22;3956;50.558;9.678;2023-04-24T05:43:54;10.10;1.00
7822;DHT22;3956;50.558;9.678;2023-04-24T05:46:32;10.10;1.00
7822;DHT22;3956;50.558;9.678;2023-04-24T05:49:18;10.10;1.00
7822;DHT22;3956;50.558;9.678;2023-04-24T05:51:50;10.20;1.00
7822;DHT22;3956;50.558;9.678;2023-04-24T05:54:25;10.00;1.00
7822;DHT22;3956;50.558;9.678;2023-04-24T05:57:13;10.00;1.00
7822;DHT22;3956;50.558;9.678;2023-04-24T05:59:44;10.00;1.00
7822;DHT22;3956;50.558;9.678;2023-04-24T06:02:20;10.10;1.00
7822;DHT22;3956;50.558;9.678;2023-04-24T06:04:51;10.30;1.00
7822;DHT22;3956;50.558;9.678;2023-04-24T06:07:22;10.50;1.00
7822;DHT22;3956;50.558;9.678;2023-04-24T06:09:50;10.40;1.00
7822;DHT22;3956;50.558;9.678;2023-04-24T06:12:19;10.40;1.00
7822;DHT22;3956;50.558;9.678;2023-04-24T06:14:49;10.40;1.00
7822;DHT22;3956;50.558;9.678;2023-04-24T06:17:20;10.50;1.00
7822;DHT22;3956;50.558;9.678;2023-04-24T06:19:55;10.60;1.00
7822;DHT22;3956;50.558;9.678;2023-04-24T06:22:25;10.60;1.00
7822;DHT22;3956;50.558;9.678;2023-04-24T06:24:54;10.40;1.00
7822;DHT22;3956;50.558;9.678;2023-04-24T06:27:23;10.50;1.00
7822;DHT22;3956;50.558;9.678;2023-04-24T06:29:52;10.50;1.00
7822;DHT22;3956;50.558;9.678;2023-04-24T06:32:22;10.50;1.00
7822;DHT22;3956;50.558;9.678;2023-04-24T06:35:08;10.60;1.00
7822;DHT22;3956;50.558;9.678;2023-04-24T06:37:53;10.70;1.00
7822;DHT22;3956;50.558;9.678;2023-04-24T06:40:56;10.90;1.00
7822;DHT22;3956;50.558;9.678;2023-04-24T06:43:27;11.30;1.00
7822;DHT22;3956;50.558;9.678;2023-04-24T06:45:57;11.10;1.00
7822;DHT22;3956;50.558;9.678;2023-04-24T06:48:26;10.80;1.00
7822;DHT22;3956;50.558;9.678;2023-04-24T06:50:57;10.90;1.00
7822;DHT22;3956;50.558;9.678;2023-04-24T06:53:29;10.80;1.00
7822;DHT22;3956;50.558;9.678;2023-04-24T06:56:00;11.00;1.00
7822;DHT22;3956;50.558;9.678;2023-04-24T06:58:33;10.80;1.00
7822;DHT22;3956;50.558;9.678;2023-04-24T07:01:46;11.20;1.00
7822;DHT22;3956;50.558;9.678;2023-04-24T07:04:15;14.50;1.00
7822;DHT22;3956;50.558;9.678;2023-04-24T07:10:10;14.60;1.00
7822;DHT22;3956;50.558;9.678;2023-04-24T07:12:39;14.30;1.00
7822;DHT22;3956;50.558;9.678;2023-04-24T07:15:09;13.70;1.00
7822;DHT22;3956;50.558;9.678;2023-04-24T07:17:39;14.20;1.00
7822;DHT22;3956;50.558;9.678;2023-04-24T07:20:11;13.40;1.00
7822;DHT22;3956;50.558;9.678;2023-04-24T07:22:42;15.20;1.00
7822;DHT22;3956;50.558;9.678;2023-04-24T07:25:28;14.90;1.00
7822;DHT22;3956;50.558;9.678;2023-04-24T07:28:08;15.10;1.00
7822;DHT22;3956;50.558;9.678;2023-04-24T07:30:36;13.30;1.00
7822;DHT22;3956;50.558;9.678;2023-04-24T07:33:04;14.20;1.00
7822;DHT22;3956;50.558;9.678;2023-04-24T07:35:34;11.70;1.00
7822;DHT22;3956;50.558;9.678;2023-04-24T07:38:16;11.30;1.00
7822;DHT22;3956;50.558;9.678;2023-04-24T07:41:00;11.00;1.00
7822;DHT22;3956;50.558;9.678;2023-04-24T07:43:37;11.10;1.00
7822;DHT22;3956;50.558;9.678;2023-04-24T07:46:21;10.90;1.00
7822;DHT22;3956;50.558;9.678;2023-04-24T07:48:58;11.80;1.00
7822;DHT22;3956;50.558;9.678;2023-04-24T07:51:41;14.90;1.00
7822;DHT22;3956;50.558;9.678;2023-04-24T07:54:10;15.00;1.00
7822;DHT22;3956;50.558;9.678;2023-04-24T07:56:45;14.90;1.00
7822;DHT22;3956;50.558;9.678;2023-04-24T07:59:22;14.40;1.00
7822;DHT22;3956;50.558;9.678;2023-04-24T08:02:01;12.70;1.00
7822;DHT22;3956;50.558;9.678;2023-04-24T08:04:33;12.20;1.00
7822;DHT22;3956;50.558;9.678;2023-04-24T08:07:11;11.30;1.00
7822;DHT22;3956;50.558;9.678;2023-04-24T08:09:47;11.70;1.00
7822;DHT22;3956;50.558;9.678;2023-04-24T08:12:18;10.70;1.00
7822;DHT22;3956;50.558;9.678;2023-04-24T08:14:47;11.30;1.00
7822;DHT22;3956;50.558;9.678;2023-04-24T08:17:16;11.10;1.00
7822;DHT22;3956;50.558;9.678;2023-04-24T08:19:45;11.90;1.00
7822;DHT22;3956;50.558;9.678;2023-04-24T08:22:15;11.30;1.00
7822;DHT22;3956;50.558;9.678;2023-04-24T08:24:48;11.30;1.00
7822;DHT22;3956;50.558;9.678;2023-04-24T08:27:39;11.00;1.00
7822;DHT22;3956;50.558;9.678;2023-04-24T08:30:35;11.30;1.00
7822;DHT22;3956;50.558;9.678;2023-04-24T08:33:25;11.10;1.00
7822;DHT22;3956;50.558;9.678;2023-04-24T08:35:57;11.30;1.00
7822;DHT22;3956;50.558;9.678;2023-04-24T08:38:29;10.90;1.00
7822;DHT22;3956;50.558;9.678;2023-04-24T08:41:09;10.70;1.00
7822;DHT22;3956;50.558;9.678;2023-04-24T08:43:49;11.00;1.00
7822;DHT22;3956;50.558;9.678;2023-04-24T08:46:19;11.20;1.00
7822;DHT22;3956;50.558;9.678;2023-04-24T08:48:55;13.10;1.00
7822;DHT22;3956;50.558;9.678;2023-04-24T08:51:26;12.70;1.00
7822;DHT22;3956;50.558;9.678;2023-04-24T08:53:57;12.00;1.00
7822;DHT22;3956;50.558;9.678;2023-04-24T08:56:29;12.20;1.00
7822;DHT22;3956;50.558;9.678;2023-04-24T08:59:12;12.30;1.00
7822;DHT22;3956;50.558;9.678;2023-04-24T09:02:10;15.80;1.00
7822;DHT22;3956;50.558;9.678;2023-04-24T09:04:40;15.70;1.00
7822;DHT22;3956;50.558;9.678;2023-04-24T09:07:11;13.30;1.00
7822;DHT22;3956;50.558;9.678;2023-04-24T09:09:47;15.10;1.00
7822;DHT22;3956;50.558;9.678;2023-04-24T09:12:22;14.70;1.00
7822;DHT22;3956;50.558;9.678;2023-04-24T09:14:58;13.90;1.00
7822;DHT22;3956;50.558;9.678;2023-04-24T09:17:28;16.40;1.00
7822;DHT22;3956;50.558;9.678;2023-04-24T09:19:58;14.70;1.00
7822;DHT22;3956;50.558;9.678;2023-04-24T09:22:29;12.90;1.00
7822;DHT22;3956;50.558;9.678;2023-04-24T09:25:05;13.00;1.00
7822;DHT22;3956;50.558;9.678;2023-04-24T09:27:43;13.10;1.00
7822;DHT22;3956;50.558;9.678;2023-04-24T09:30:22;12.80;1.00
7822;DHT22;3956;50.558;9.678;2023-04-24T09:33:15;12.60;1.00
7822;DHT22;3956;50.558;9.678;2023-04-24T09:36:06;12.70;1.00
7822;DHT22;3956;50.558;9.678;2023-04-24T09:38:43;12.20;1.00
7822;DHT22;3956;50.558;9.678;2023-04-24T09:41:23;12.40;1.00
7822;DHT22;3956;50.558;9.678;2023-04-24T09:44:34;11.90;1.00
7822;DHT22;3956;50.558;9.678;2023-04-24T09:47:09;11.70;1.00
7822;DHT22;3956;50.558;9.678;2023-04-24T09:49:38;11.90;1.00
7822;DHT22;3956;50.558;9.678;2023-04-24T09:52:11;11.60;1.00
7822;DHT22;3956;50.558;9.678;2023-04-24T09:54:52;11.50;1.00
7822;DHT22;3956;50.558;9.678;2023-04-24T09:57:21;11.80;1.00
7822;DHT22;3956;50.558;9.678;2023-04-24T09:59:57;11.60;1.00
7822;DHT22;3956;50.558;9.678;2023-04-24T10:02:33;11.20;1.00
7822;DHT22;3956;50.558;9.678;2023-04-24T10:05:06;11.20;1.00
7822;DHT22;3956;50.558;9.678;2023-04-24T10:07:39;11.10;1.00
7822;DHT22;3956;50.558;9.678;2023-04-24T10:10:19;11.20;1.00
7822;DHT22;3956;50.558;9.678;2023-04-24T10:12:53;11.10;1.00
7822;DHT22;3956;50.558;9.678;2023-04-24T10:15:22;11.00;1.00
7822;DHT22;3956;50.558;9.678;2023-04-24T10:17:53;11.00;1.00
7822;DHT22;3956;50.558;9.678;2023-04-24T10:20:29;10.80;1.00
7822;DHT22;3956;50.558;9.678;2023-04-24T10:22:59;10.80;1.00
7822;DHT22;3956;50.558;9.678;2023-04-24T10:25:32;10.90;1.00
7822;DHT22;3956;50.558;9.678;2023-04-24T10:28:04;10.90;1.00
7822;DHT22;3956;50.558;9.678;2023-04-24T10:30:37;10.80;1.00
7822;DHT22;3956;50.558;9.678;2023-04-24T10:33:11;10.60;1.00
7822;DHT22;3956;50.558;9.678;2023-04-24T10:35:45;10.80;1.00
7822;DHT22;3956;50.558;9.678;2023-04-24T10:38:23;10.90;1.00
7822;DHT22;3956;50.558;9.678;2023-04-24T10:41:08;11.10;1.00
7822;DHT22;3956;50.558;9.678;2023-04-24T10:44:09;10.70;1.00
7822;DHT22;3956;50.558;9.678;2023-04-24T10:46:45;10.70;1.00
7822;DHT22;3956;50.558;9.678;2023-04-24T10:49:34;10.80;1.00
7822;DHT22;3956;50.558;9.678;2023-04-24T10:52:05;11.10;1.00
7822;DHT22;3956;50.558;9.678;2023-04-24T10:54:45;11.10;1.00
7822;DHT22;3956;50.558;9.678;2023-04-24T10:57:30;11.10;1.00
7822;DHT22;3956;50.558;9.678;2023-04-24T11:00:16;11.10;1.00
7822;DHT22;3956;50.558;9.678;2023-04-24T11:02:52;11.40;1.00
7822;DHT22;3956;50.558;9.678;2023-04-24T11:08:29;11.50;1.00
7822;DHT22;3956;50.558;9.678;2023-04-24T11:11:43;11.30;1.00
7822;DHT22;3956;50.558;9.678;2023-04-24T11:15:31;11.20;1.00
7822;DHT22;3956;50.558;9.678;2023-04-24T11:18:05;12.20;1.00
7822;DHT22;3956;50.558;9.678;2023-04-24T11:21:02;12.40;1.00
7822;DHT22;3956;50.558;9.678;2023-04-24T11:23:46;12.10;1.00
7822;DHT22;3956;50.558;9.678;2023-04-24T11:26:22;11.60;1.00
7822;DHT22;3956;50.558;9.678;2023-04-24T11:28:54;11.90;1.00
7822;DHT22;3956;50.558;9.678;2023-04-24T11:31:44;11.10;1.00
7822;DHT22;3956;50.558;9.678;2023-04-24T11:34:17;11.00;1.00
7822;DHT22;3956;50.558;9.678;2023-04-24T11:37:00;11.10;1.00
7822;DHT22;3956;50.558;9.678;2023-04-24T11:40:08;10.80;99.90
7822;DHT22;3956;50.558;9.678;2023-04-24T11:42:39;10.20;99.90
7822;DHT22;3956;50.558;9.678;2023-04-24T11:45:12;9.70;1.00
7822;DHT22;3956;50.558;9.678;2023-04-24T11:48:06;9.40;99.90
7822;DHT22;3956;50.558;9.678;2023-04-24T11:50:35;9.20;1.00
7822;DHT22;3956;50.558;9.678;2023-04-24T11:53:09;9.00;1.00
7822;DHT22;3956;50.558;9.678;2023-04-24T11:55:39;9.00;1.00
7822;DHT22;3956;50.558;9.678;2023-04-24T11:58:07;8.80;99.90
7822;DHT22;3956;50.558;9.678;2023-04-24T12:00:40;8.80;1.00
7822;DHT22;3956;50.558;9.678;2023-04-24T12:03:11;8.80;99.90
7822;DHT22;3956;50.558;9.678;2023-04-24T12:05:41;8.50;99.90
7822;DHT22;3956;50.558;9.678;2023-04-24T12:08:28;8.70;1.00
7822;DHT22;3956;50.558;9.678;2023-04-24T12:11:16;9.40;99.90
7822;DHT22;3956;50.558;9.678;2023-04-24T12:13:48;9.70;1.00
7822;DHT22;3956;50.558;9.678;2023-04-24T12:16:17;9.80;1.00
7822;DHT22;3956;50.558;9.678;2023-04-24T12:18:45;9.90;99.90
7822;DHT22;3956;50.558;9.678;2023-04-24T12:21:22;10.20;54.80
7822;DHT22;3956;50.558;9.678;2023-04-24T12:23:54;10.50;1.00
7822;DHT22;3956;50.558;9.678;2023-04-24T12:26:30;10.70;1.00
7822;DHT22;3956;50.558;9.678;2023-04-24T12:29:02;10.80;1.00
7822;DHT22;3956;50.558;9.678;2023-04-24T12:31:32;10.70;1.00
7822;DHT22;3956;50.558;9.678;2023-04-24T12:34:03;10.30;1.00
7822;DHT22;3956;50.558;9.678;2023-04-24T12:36:32;10.70;1.00
7822;DHT22;3956;50.558;9.678;2023-04-24T12:39:18;10.60;1.00
7822;DHT22;3956;50.558;9.678;2023-04-24T12:41:59;11.20;1.00
7822;DHT22;3956;50.558;9.678;2023-04-24T12:44:33;10.50;1.00
7822;DHT22;3956;50.558;9.678;2023-04-24T12:47:24;10.70;1.00
7822;DHT22;3956;50.558;9.678;2023-04-24T12:49:55;11.00;1.00
7822;DHT22;3956;50.558;9.678;2023-04-24T12:52:32;11.10;1.00
7822;DHT22;3956;50.558;9.678;2023-04-24T12:55:01;11.20;1.00
7822;DHT22;3956;50.558;9.678;2023-04-24T12:57:41;11.60;1.00
7822;DHT22;3956;50.558;9.678;2023-04-24T13:00:37;11.50;1.00
7822;DHT22;3956;50.558;9.678;2023-04-24T13:03:07;11.60;1.00
7822;DHT22;3956;50.558;9.678;2023-04-24T13:05:36;11.50;1.00
7822;DHT22;3956;50.558;9.678;2023-04-24T13:08:07;12.00;1.00
7822;DHT22;3956;50.558;9.678;2023-04-24T13:10:35;11.80;1.00
7822;DHT22;3956;50.558;9.678;2023-04-24T13:13:21;11.60;1.00
7822;DHT22;3956;50.558;9.678;2023-04-24T13:15:59;11.10;1.00
7822;DHT22;3956;50.558;9.678;2023-04-24T13:18:40;10.90;1.00
7822;DHT22;3956;50.558;9.678;2023-04-24T13:21:36;11.00;1.00
7822;DHT22;3956;50.558;9.678;2023-04-24T13:24:25;10.80;1.00
7822;DHT22;3956;50.558;9.678;2023-04-24T13:26:55;10.90;1.00
7822;DHT22;3956;50.558;9.678;2023-04-24T13:29:36;10.70;1.00
7822;DHT22;3956;50.558;9.678;2023-04-24T13:32:34;10.90;1.00
7822;DHT22;3956;50.558;9.678;2023-04-24T13:35:21;10.80;1.00
7822;DHT22;3956;50.558;9.678;2023-04-24T13:37:52;10.90;1.00
7822;DHT22;3956;50.558;9.678;2023-04-24T13:40:46;11.20;1.00
7822;DHT22;3956;50.558;9.678;2023-04-24T13:44:01;11.30;1.00
7822;DHT22;3956;50.558;9.678;2023-04-24T13:46:31;11.20;1.00
7822;DHT22;3956;50.558;9.678;2023-04-24T13:49:14;11.10;1.00
7822;DHT22;3956;50.558;9.678;2023-04-24T13:51:50;11.10;1.00
7822;DHT22;3956;50.558;9.678;2023-04-24T13:54:31;11.00;1.00
7822;DHT22;3956;50.558;9.678;2023-04-24T13:57:11;10.90;1.00
7822;DHT22;3956;50.558;9.678;2023-04-24T13:59:45;11.10;1.00
7822;DHT22;3956;50.558;9.678;2023-04-24T14:02:50;10.80;1.00
7822;DHT22;3956;50.558;9.678;2023-04-24T14:05:20;11.00;1.00
7822;DHT22;3956;50.558;9.678;2023-04-24T14:07:50;10.70;1.00
7822;DHT22;3956;50.558;9.678;2023-04-24T14:10:20;10.80;1.00
7822;DHT22;3956;50.558;9.678;2023-04-24T14:13:02;10.80;1.00
7822;DHT22;3956;50.558;9.678;2023-04-24T14:15:30;10.70;1.00
7822;DHT22;3956;50.558;9.678;2023-04-24T14:18:00;10.50;1.00
7822;DHT22;3956;50.558;9.678;2023-04-24T14:20:30;10.70;1.00
7822;DHT22;3956;50.558;9.678;2023-04-24T14:23:03;10.70;1.00
7822;DHT22;3956;50.558;9.678;2023-04-24T14:25:34;10.70;1.00
7822;DHT22;3956;50.558;9.678;2023-04-24T14:28:02;10.70;1.00
7822;DHT22;3956;50.558;9.678;2023-04-24T14:30:32;10.70;1.00
7822;DHT22;3956;50.558;9.678;2023-04-24T14:33:13;10.80;1.00
7822;DHT22;3956;50.558;9.678;2023-04-24T14:35:44;10.80;1.00
7822;DHT22;3956;50.558;9.678;2023-04-24T14:38:17;11.00;1.00
7822;DHT22;3956;50.558;9.678;2023-04-24T14:40:45;11.00;1.00
7822;DHT22;3956;50.558;9.678;2023-04-24T14:43:16;11.20;1.00
7822;DHT22;3956;50.558;9.678;2023-04-24T14:45:44;11.10;1.00
7822;DHT22;3956;50.558;9.678;2023-04-24T14:48:13;10.90;1.00
7822;DHT22;3956;50.558;9.678;2023-04-24T14:50:43;10.90;1.00
7822;DHT22;3956;50.558;9.678;2023-04-24T14:53:12;10.90;1.00
7822;DHT22;3956;50.558;9.678;2023-04-24T14:55:40;11.00;1.00
7822;DHT22;3956;50.558;9.678;2023-04-24T14:58:08;10.90;1.00
7822;DHT22;3956;50.558;9.678;2023-04-24T15:00:37;10.70;1.00
7822;DHT22;3956;50.558;9.678;2023-04-24T15:03:05;10.60;1.00
7822;DHT22;3956;50.558;9.678;2023-04-24T15:05:35;10.30;1.00
7822;DHT22;3956;50.558;9.678;2023-04-24T15:08:04;10.10;1.00
7822;DHT22;3956;50.558;9.678;2023-04-24T15:10:33;9.90;1.00
7822;DHT22;3956;50.558;9.678;2023-04-24T15:13:02;9.90;1.00
7822;DHT22;3956;50.558;9.678;2023-04-24T15:15:46;10.10;1.00
7822;DHT22;3956;50.558;9.678;2023-04-24T15:18:21;10.10;1.00
7822;DHT22;3956;50.558;9.678;2023-04-24T15:21:00;10.10;1.00
7822;DHT22;3956;50.558;9.678;2023-04-24T15:23:46;10.20;1.00
7822;DHT22;3956;50.558;9.678;2023-04-24T15:26:36;10.20;1.00
7822;DHT22;3956;50.558;9.678;2023-04-24T15:29:27;10.20;1.00
7822;DHT22;3956;50.558;9.678;2023-04-24T15:31:59;10.60;1.00
7822;DHT22;3956;50.558;9.678;2023-04-24T15:34:39;10.50;1.00
7822;DHT22;3956;50.558;9.678;2023-04-24T15:43:44;11.00;1.00
7822;DHT22;3956;50.558;9.678;2023-04-24T15:46:15;11.10;1.00
7822;DHT22;3956;50.558;9.678;2023-04-24T15:48:51;11.00;1.00
7822;DHT22;3956;50.558;9.678;2023-04-24T15:51:35;10.90;1.00
7822;DHT22;3956;50.558;9.678;2023-04-24T15:54:04;11.00;1.00
7822;DHT22;3956;50.558;9.678;2023-04-24T15:56:34;11.20;1.00
7822;DHT22;3956;50.558;9.678;2023-04-24T15:59:04;11.50;1.00
7822;DHT22;3956;50.558;9.678;2023-04-24T16:01:38;11.50;1.00
7822;DHT22;3956;50.558;9.678;2023-04-24T16:04:14;11.20;1.00
7822;DHT22;3956;50.558;9.678;2023-04-24T16:06:43;10.90;1.00
7822;DHT22;3956;50.558;9.678;2023-04-24T16:09:14;11.00;1.00
7822;DHT22;3956;50.558;9.678;2023-04-24T16:11:49;11.00;1.00
7822;DHT22;3956;50.558;9.678;2023-04-24T16:14:45;11.00;1.00
7822;DHT22;3956;50.558;9.678;2023-04-24T16:17:13;11.00;1.00
7822;DHT22;3956;50.558;9.678;2023-04-24T16:19:59;11.10;1.00
7822;DHT22;3956;50.558;9.678;2023-04-24T16:22:29;11.10;1.00
7822;DHT22;3956;50.558;9.678;2023-04-24T16:24:57;10.90;1.00
7822;DHT22;3956;50.558;9.678;2023-04-24T16:27:26;10.70;1.00
7822;DHT22;3956;50.558;9.678;2023-04-24T16:30:00;10.70;1.00
7822;DHT22;3956;50.558;9.678;2023-04-24T16:32:36;10.70;1.00
7822;DHT22;3956;50.558;9.678;2023-04-24T16:35:31;10.70;1.00
7822;DHT22;3956;50.558;9.678;2023-04-24T16:38:00;10.50;1.00
7822;DHT22;3956;50.558;9.678;2023-04-24T16:40:35;10.00;1.00
7822;DHT22;3956;50.558;9.678;2023-04-24T16:43:06;9.60;99.90
7822;DHT22;3956;50.558;9.678;2023-04-24T16:45:40;9.20;1.00
7822;DHT22;3956;50.558;9.678;2023-04-24T16:48:11;9.30;99.90
7822;DHT22;3956;50.558;9.678;2023-04-24T16:50:42;9.20;1.00
7822;DHT22;3956;50.558;9.678;2023-04-24T16:53:24;9.30;99.90
7822;DHT22;3956;50.558;9.678;2023-04-24T16:56:06;9.50;1.00
7822;DHT22;3956;50.558;9.678;2023-04-24T16:58:36;9.50;1.00
7822;DHT22;3956;50.558;9.678;2023-04-24T17:01:08;9.40;1.00
7822;DHT22;3956;50.558;9.678;2023-04-24T17:03:41;9.50;1.00
7822;DHT22;3956;50.558;9.678;2023-04-24T17:06:42;9.50;1.00
7822;DHT22;3956;50.558;9.678;2023-04-24T17:13:11;9.50;1.00
7822;DHT22;3956;50.558;9.678;2023-04-24T17:16:05;9.70;1.00
7822;DHT22;3956;50.558;9.678;2023-04-24T17:18:35;9.70;1.00
7822;DHT22;3956;50.558;9.678;2023-04-24T17:21:05;9.70;1.00
7822;DHT22;3956;50.558;9.678;2023-04-24T17:23:41;9.70;1.00
7822;DHT22;3956;50.558;9.678;2023-04-24T17:26:40;9.90;1.00
7822;DHT22;3956;50.558;9.678;2023-04-24T17:29:10;9.90;1.00